Tobarra, Spain
Current Conditions -  °F | °C
As of 4:00 AM on Friday 19 Dec 2014 (Local Time) from LEAB Reporting Station
Haze Haze  
Wind Chill: 34°   Ceiling: Unl
Heat Index: 34°   Visibility: 2.6mi
Dew Point: 34°   Wind: 3mph
Humidity: 100%   Direction: 160°SSE
Pressure: 30.39"   Gusts: NA
Location:  38.59°N, 1.69°W
Report Text: LEAB 190300Z 16003KT 4300 BR FEW003 01/01 Q1029 NOSIG
Loading
Personal Weather Stations






























Interactive Weather Map New forecast layout! Learn more

10-Day Weather Forecast

Advertisements
Track Severe Weather on mobile